Terminal Aerodrome Forecast
Issued by NWS

Home | Current Version | Previous Version | Text Only | Print | Product List | Glossary On
Versions: 1 2 3 4 5 6 7 8 9 10 11 12 13 14 15 16 17 18 19 20
000
FTUS42 KMLB 011700
TAFSFB
TAF
KSFB 011737Z 0118/0218 07006KT P6SM VCSH SCT035 SCT050 OVC070
      TEMPO 0118/0122 3SM SHRA BKN020
     FM020300 05003KT P6SM SCT012 BKN030
     FM020600 34003KT P6SM BKN025=

USA.gov is the U.S. government's official web portal to all federal, state and local government web resources and services.